Time;durP1;ratioP1;P1;durP2;ratioP2;P2;SDS_P1;SDS_P2;PMS_P1;PMS_P2;Temp;Humidity;BMP_temperature;BMP_pressure;BME280_temperature;BME280_humidity;BME280_pressure;Samples;Min_cycle;Max_cycle;Signal;HPM_P1;HPM_P2
2023/04/25 00:01:18;;;;;;;5.18;2.35;;;;;;;;;;5043374;28;20044;-62
2023/04/25 00:03:45;;;;;;;7.25;1.88;;;;;;;;;;5047296;28;20060;-62
2023/04/25 00:06:11;;;;;;;3.70;1.88;;;;;;;;;;5029617;28;20045;-63
2023/04/25 00:08:37;;;;;;;8.52;2.03;;;;;;;;;;5028371;28;20057;-62
2023/04/25 00:11:03;;;;;;;6.78;2.30;;;;;;;;;;5029291;28;20051;-63
2023/04/25 00:13:29;;;;;;;3.35;2.05;;;;;;;;;;5046098;28;20525;-62
2023/04/25 00:15:56;;;;;;;8.65;2.65;;;;;;;;;;5046677;28;20049;-62
2023/04/25 00:18:22;;;;;;;6.85;2.25;;;;;;;;;;5045691;28;20048;-62
2023/04/25 00:20:48;;;;;;;5.07;2.13;;;;;;;;;;5045742;28;20176;-62
2023/04/25 00:23:18;;;;;;;7.20;2.60;;;;;;;;;;5029381;28;20043;-62
2023/04/25 00:25:44;;;;;;;4.22;1.88;;;;;;;;;;5029104;28;20181;-62
2023/04/25 00:28:11;;;;;;;6.32;1.92;;;;;;;;;;5046166;28;20045;-62
2023/04/25 00:30:37;;;;;;;6.00;2.20;;;;;;;;;;5028041;28;20049;-63
2023/04/25 00:33:03;;;;;;;4.70;1.75;;;;;;;;;;5045776;28;20043;-62
2023/04/25 00:35:29;;;;;;;4.32;1.65;;;;;;;;;;5046014;28;20045;-62
2023/04/25 00:37:55;;;;;;;8.15;1.73;;;;;;;;;;5046479;28;20055;-62
2023/04/25 00:40:21;;;;;;;3.83;1.83;;;;;;;;;;5046780;28;20140;-62
2023/04/25 00:42:47;;;;;;;2.55;1.02;;;;;;;;;;5045376;28;20045;-62
2023/04/25 00:45:15;;;;;;;2.90;1.08;;;;;;;;;;5046500;28;20057;-62
2023/04/25 00:47:41;;;;;;;2.80;1.00;;;;;;;;;;5046370;28;20060;-62
2023/04/25 00:50:07;;;;;;;3.78;1.58;;;;;;;;;;5045544;28;20052;-62
2023/04/25 00:52:34;;;;;;;3.58;1.42;;;;;;;;;;5045895;28;20064;-62
2023/04/25 00:55:00;;;;;;;3.75;1.15;;;;;;;;;;5046496;28;20055;-62
2023/04/25 00:57:26;;;;;;;4.20;1.10;;;;;;;;;;5027814;28;20048;-62
2023/04/25 00:59:53;;;;;;;2.40;0.88;;;;;;;;;;5045318;28;20056;-62
2023/04/25 01:02:20;;;;;;;4.85;1.00;;;;;;;;;;5046442;28;20095;-62
2023/04/25 01:04:46;;;;;;;3.10;1.63;;;;;;;;;;5044812;28;20063;-62
2023/04/25 01:07:12;;;;;;;0.88;0.85;;;;;;;;;;5042609;28;20056;-62
2023/04/25 01:09:39;;;;;;;1.65;0.90;;;;;;;;;;5027326;28;20565;-62
2023/04/25 01:12:05;;;;;;;2.95;1.25;;;;;;;;;;5045806;28;20114;-64
2023/04/25 01:14:31;;;;;;;3.00;0.90;;;;;;;;;;5027704;28;20057;-62
2023/04/25 01:16:57;;;;;;;3.63;1.02;;;;;;;;;;5045477;28;20075;-62
2023/04/25 01:19:24;;;;;;;1.83;0.98;;;;;;;;;;5026528;28;20049;-62
2023/04/25 01:21:50;;;;;;;2.13;0.52;;;;;;;;;;5027588;28;20110;-62
2023/04/25 01:24:16;;;;;;;2.20;0.90;;;;;;;;;;5027482;28;20048;-62
2023/04/25 01:26:49;;;;;;;2.03;0.93;;;;;;;;;;5027698;28;20056;-62
2023/04/25 01:29:16;;;;;;;2.65;0.70;;;;;;;;;;5045213;28;20057;-62
2023/04/25 01:31:43;;;;;;;3.03;0.75;;;;;;;;;;5027182;28;20049;-62
2023/04/25 01:34:09;;;;;;;2.97;1.02;;;;;;;;;;5027795;28;20548;-62
2023/04/25 01:36:35;;;;;;;5.00;1.35;;;;;;;;;;5027379;28;20049;-62
2023/04/25 01:39:01;;;;;;;2.75;0.93;;;;;;;;;;5025523;28;20059;-62
2023/04/25 01:41:27;;;;;;;2.22;0.90;;;;;;;;;;5045162;28;20530;-62
2023/04/25 01:43:53;;;;;;;2.38;1.08;;;;;;;;;;5026119;28;20060;-62
2023/04/25 01:46:19;;;;;;;3.00;1.25;;;;;;;;;;5044825;28;20049;-62
2023/04/25 01:48:45;;;;;;;4.10;1.13;;;;;;;;;;5026879;28;20068;-62
2023/04/25 01:51:11;;;;;;;2.45;1.25;;;;;;;;;;5045637;28;20072;-62
2023/04/25 01:53:38;;;;;;;4.40;1.20;;;;;;;;;;5026125;28;20072;-62
2023/04/25 01:56:04;;;;;;;3.47;1.80;;;;;;;;;;5044644;28;20045;-63
2023/04/25 01:58:30;;;;;;;2.47;1.38;;;;;;;;;;5045308;28;20065;-62
2023/04/25 02:00:56;;;;;;;1.98;1.20;;;;;;;;;;5044257;28;20041;-62
2023/04/25 02:03:22;;;;;;;3.00;1.00;;;;;;;;;;5045271;28;20127;-62
2023/04/25 02:05:49;;;;;;;3.90;1.20;;;;;;;;;;5026415;28;20511;-62
2023/04/25 02:08:15;;;;;;;6.63;1.77;;;;;;;;;;5044532;28;20041;-62
2023/04/25 02:10:41;;;;;;;3.40;1.85;;;;;;;;;;5045139;28;20045;-62
2023/04/25 02:13:07;;;;;;;5.88;1.27;;;;;;;;;;5044015;28;20044;-62
2023/04/25 02:15:33;;;;;;;5.75;1.52;;;;;;;;;;5044567;28;20051;-62
2023/04/25 02:18:00;;;;;;;6.15;2.30;;;;;;;;;;5026833;28;20539;-62
2023/04/25 02:20:26;;;;;;;1.85;1.20;;;;;;;;;;5023316;28;20090;-62
2023/04/25 02:22:52;;;;;;;6.03;2.17;;;;;;;;;;5026043;28;20080;-62
2023/04/25 02:25:19;;;;;;;4.15;1.33;;;;;;;;;;5026028;28;20072;-62
2023/04/25 02:27:46;;;;;;;5.55;1.23;;;;;;;;;;5025432;28;20060;-62
2023/04/25 02:30:12;;;;;;;3.28;0.85;;;;;;;;;;5045085;28;20064;-62
2023/04/25 02:32:38;;;;;;;3.28;1.40;;;;;;;;;;5026160;28;20049;-62
2023/04/25 02:35:05;;;;;;;4.32;1.77;;;;;;;;;;5024869;28;20057;-62
2023/04/25 02:37:31;;;;;;;5.70;1.70;;;;;;;;;;5043919;28;20056;-62
2023/04/25 02:39:57;;;;;;;6.97;1.17;;;;;;;;;;5026481;28;20103;-62
2023/04/25 02:42:23;;;;;;;5.32;1.17;;;;;;;;;;5044007;28;20045;-62
2023/04/25 02:44:49;;;;;;;3.05;1.20;;;;;;;;;;5043278;28;20139;-62
2023/04/25 02:47:15;;;;;;;5.75;1.83;;;;;;;;;;5044496;28;20052;-62
2023/04/25 02:49:41;;;;;;;3.92;1.33;;;;;;;;;;5043412;28;20048;-62
2023/04/25 02:52:07;;;;;;;4.70;0.88;;;;;;;;;;5044110;28;20044;-62
2023/04/25 02:54:33;;;;;;;5.20;1.55;;;;;;;;;;5044099;28;20144;-62
2023/04/25 02:57:00;;;;;;;2.47;0.82;;;;;;;;;;5043858;28;20136;-62
2023/04/25 02:59:26;;;;;;;7.10;1.25;;;;;;;;;;5044380;28;20056;-62
2023/04/25 03:01:52;;;;;;;4.68;1.13;;;;;;;;;;5043842;28;20065;-62
2023/04/25 03:04:19;;;;;;;4.57;1.38;;;;;;;;;;5026565;28;20136;-62
2023/04/25 03:06:45;;;;;;;3.08;1.33;;;;;;;;;;5043716;28;20076;-62
2023/04/25 03:09:11;;;;;;;5.20;1.15;;;;;;;;;;5025911;28;20470;-62
2023/04/25 03:11:37;;;;;;;3.03;1.48;;;;;;;;;;5025226;28;20289;-62
2023/04/25 03:14:03;;;;;;;2.33;1.00;;;;;;;;;;5025848;28;20076;-62
2023/04/25 03:16:30;;;;;;;1.55;0.70;;;;;;;;;;5025360;28;20037;-62
2023/04/25 03:18:56;;;;;;;1.90;0.80;;;;;;;;;;5025504;28;20053;-62
2023/04/25 03:21:23;;;;;;;1.67;0.70;;;;;;;;;;5024135;28;20507;-62
2023/04/25 03:23:49;;;;;;;1.58;1.08;;;;;;;;;;5024708;28;20087;-62
2023/04/25 03:26:15;;;;;;;2.10;0.93;;;;;;;;;;5042658;28;20045;-62
2023/04/25 03:28:41;;;;;;;2.75;0.70;;;;;;;;;;5042002;28;20081;-62
2023/04/25 03:31:07;;;;;;;1.35;0.90;;;;;;;;;;5042387;28;20040;-62
2023/04/25 03:33:33;;;;;;;2.40;0.90;;;;;;;;;;5043395;28;20536;-62
2023/04/25 03:35:59;;;;;;;2.97;0.90;;;;;;;;;;5043259;28;20041;-62
2023/04/25 03:38:25;;;;;;;1.13;0.70;;;;;;;;;;5047228;28;20128;-62
2023/04/25 03:40:52;;;;;;;1.42;0.73;;;;;;;;;;5029186;28;20045;-62
2023/04/25 03:43:18;;;;;;;1.50;0.60;;;;;;;;;;5049006;28;20056;-62
2023/04/25 03:45:45;;;;;;;4.15;1.00;;;;;;;;;;5046520;28;20128;-62
2023/04/25 03:48:11;;;;;;;2.10;0.98;;;;;;;;;;5021997;28;20697;-62
2023/04/25 03:50:37;;;;;;;1.17;0.65;;;;;;;;;;5029759;28;20064;-62
2023/04/25 03:53:03;;;;;;;2.40;1.00;;;;;;;;;;5041421;28;20096;-62
2023/04/25 03:55:29;;;;;;;2.03;0.75;;;;;;;;;;5048579;28;20049;-62
2023/04/25 03:57:55;;;;;;;2.88;0.90;;;;;;;;;;5046801;28;20041;-62
2023/04/25 04:00:21;;;;;;;3.15;0.90;;;;;;;;;;5046773;28;20048;-62
2023/04/25 04:02:47;;;;;;;1.88;0.88;;;;;;;;;;5048226;28;20098;-62
2023/04/25 04:05:13;;;;;;;6.78;1.50;;;;;;;;;;5047834;28;20045;-62
2023/04/25 04:07:40;;;;;;;3.67;1.30;;;;;;;;;;5047150;28;20071;-62
2023/04/25 04:10:07;;;;;;;2.30;0.80;;;;;;;;;;5045732;28;20056;-62
2023/04/25 04:12:33;;;;;;;3.90;1.33;;;;;;;;;;5039264;28;20116;-62
2023/04/25 04:14:59;;;;;;;5.30;1.17;;;;;;;;;;5042977;28;20045;-62
2023/04/25 04:17:26;;;;;;;2.95;0.98;;;;;;;;;;5037890;28;20551;-62
2023/04/25 04:19:52;;;;;;;1.70;1.00;;;;;;;;;;5038259;28;20053;-62
2023/04/25 04:22:18;;;;;;;1.17;0.60;;;;;;;;;;5046463;28;20098;-62
2023/04/25 04:24:46;;;;;;;2.15;0.95;;;;;;;;;;5046999;28;20120;-62
2023/04/25 04:27:12;;;;;;;1.27;0.35;;;;;;;;;;5048654;28;20056;-62
2023/04/25 04:29:38;;;;;;;2.22;1.17;;;;;;;;;;5046827;28;20040;-62
2023/04/25 04:32:05;;;;;;;0.82;0.35;;;;;;;;;;5046690;28;20049;-62
2023/04/25 04:34:31;;;;;;;0.65;0.60;;;;;;;;;;5046022;28;20045;-62
2023/04/25 04:36:57;;;;;;;1.10;0.60;;;;;;;;;;5028496;28;20190;-62
2023/04/25 04:39:23;;;;;;;1.33;0.40;;;;;;;;;;5046524;28;20106;-62
2023/04/25 04:41:50;;;;;;;1.33;0.52;;;;;;;;;;5045469;28;20465;-62
2023/04/25 04:44:16;;;;;;;0.30;0.30;;;;;;;;;;5046706;28;20057;-61
2023/04/25 04:46:44;;;;;;;0.90;0.30;;;;;;;;;;5048141;28;20053;-63
2023/04/25 04:49:10;;;;;;;0.55;0.20;;;;;;;;;;5019528;28;20064;-62
2023/04/25 04:51:36;;;;;;;0.57;0.28;;;;;;;;;;5028792;28;20064;-62
2023/04/25 04:54:03;;;;;;;0.77;0.25;;;;;;;;;;5028602;28;20052;-62
2023/04/25 04:56:30;;;;;;;1.85;0.40;;;;;;;;;;5046399;28;20049;-62
2023/04/25 04:58:56;;;;;;;0.75;0.25;;;;;;;;;;5028748;28;20181;-62
2023/04/25 05:01:23;;;;;;;1.17;0.50;;;;;;;;;;5027563;28;20668;-62
2023/04/25 05:03:49;;;;;;;0.52;0.52;;;;;;;;;;5027317;28;20688;-62
2023/04/25 05:06:16;;;;;;;2.13;0.38;;;;;;;;;;5028493;28;20407;-62
2023/04/25 05:08:42;;;;;;;1.27;0.50;;;;;;;;;;5045966;28;20110;-62
2023/04/25 05:11:08;;;;;;;0.22;0.13;;;;;;;;;;5045064;28;20049;-62
2023/04/25 05:13:34;;;;;;;0.40;0.40;;;;;;;;;;5046270;28;20090;-62
2023/04/25 05:16:00;;;;;;;0.30;0.30;;;;;;;;;;5044682;28;20458;-62
2023/04/25 05:18:26;;;;;;;1.20;0.30;;;;;;;;;;5045774;28;20052;-62
2023/04/25 05:20:53;;;;;;;0.32;0.30;;;;;;;;;;5045775;28;20079;-62
2023/04/25 05:23:19;;;;;;;0.77;0.30;;;;;;;;;;5043722;28;20998;-62
2023/04/25 05:25:45;;;;;;;1.02;0.30;;;;;;;;;;5045370;28;20055;-62
2023/04/25 05:28:13;;;;;;;0.25;0.22;;;;;;;;;;5027254;28;20045;-62
2023/04/25 05:30:39;;;;;;;0.30;0.20;;;;;;;;;;5043913;28;20084;-62
2023/04/25 05:33:05;;;;;;;1.00;0.32;;;;;;;;;;5026323;28;20557;-62
2023/04/25 05:35:31;;;;;;;0.50;0.43;;;;;;;;;;5026299;28;20052;-62
2023/04/25 05:37:57;;;;;;;0.20;0.20;;;;;;;;;;5025391;28;20045;-62
2023/04/25 05:40:23;;;;;;;0.20;0.20;;;;;;;;;;5043935;28;20076;-62
2023/04/25 05:42:49;;;;;;;0.20;0.20;;;;;;;;;;5025852;28;20359;-62
2023/04/25 05:45:17;;;;;;;0.28;0.22;;;;;;;;;;5043703;28;20084;-62
2023/04/25 05:47:43;;;;;;;0.40;0.20;;;;;;;;;;5025416;28;20102;-62
2023/04/25 05:50:09;;;;;;;0.47;0.20;;;;;;;;;;5043502;28;20053;-62
2023/04/25 05:52:35;;;;;;;0.25;0.13;;;;;;;;;;5025361;28;20041;-64
2023/04/25 05:55:01;;;;;;;0.90;0.20;;;;;;;;;;5024295;28;20098;-62
2023/04/25 05:57:27;;;;;;;0.20;0.20;;;;;;;;;;5044321;28;20036;-62
2023/04/25 05:59:53;;;;;;;0.85;0.43;;;;;;;;;;5025778;28;20446;-62
2023/04/25 06:02:23;;;;;;;0.90;0.30;;;;;;;;;;5043904;28;20495;-62
2023/04/25 06:04:50;;;;;;;1.75;0.40;;;;;;;;;;5043364;28;20401;-62
2023/04/25 06:07:17;;;;;;;0.63;0.15;;;;;;;;;;5043013;28;20116;-62
2023/04/25 06:09:43;;;;;;;3.22;0.40;;;;;;;;;;5042907;28;20077;-62
2023/04/25 06:12:09;;;;;;;1.05;0.60;;;;;;;;;;5024639;28;20495;-62
2023/04/25 06:14:35;;;;;;;1.60;0.40;;;;;;;;;;5043596;28;20526;-62
2023/04/25 06:17:06;;;;;;;1.50;0.50;;;;;;;;;;5042203;28;20073;-63
2023/04/25 06:19:35;;;;;;;4.20;0.85;;;;;;;;;;5042077;28;20048;-63
2023/04/25 06:22:04;;;;;;;2.05;0.60;;;;;;;;;;5043291;28;20041;-63
2023/04/25 06:24:30;;;;;;;3.65;0.65;;;;;;;;;;5025071;28;20041;-63
2023/04/25 06:26:56;;;;;;;4.80;1.35;;;;;;;;;;5024910;28;20049;-63
2023/04/25 06:29:22;;;;;;;2.55;0.85;;;;;;;;;;5042561;28;20586;-63
2023/04/25 06:31:48;;;;;;;5.50;1.42;;;;;;;;;;5042258;28;20365;-63
2023/04/25 06:34:15;;;;;;;3.83;1.05;;;;;;;;;;5024474;28;20045;-64
2023/04/25 06:36:41;;;;;;;1.67;0.60;;;;;;;;;;5043572;28;20049;-64
2023/04/25 06:39:08;;;;;;;3.95;1.38;;;;;;;;;;5023789;28;20144;-63
2023/04/25 06:41:35;;;;;;;4.18;1.38;;;;;;;;;;5024795;28;20071;-63
2023/04/25 06:44:01;;;;;;;2.97;1.00;;;;;;;;;;5013931;28;20059;-63
2023/04/25 06:46:27;;;;;;;7.70;2.03;;;;;;;;;;5025239;28;20060;-63
2023/04/25 06:48:53;;;;;;;4.45;1.65;;;;;;;;;;5042587;28;20059;-63
2023/04/25 06:51:19;;;;;;;2.60;0.60;;;;;;;;;;5043572;28;20375;-63
2023/04/25 06:53:45;;;;;;;1.15;0.50;;;;;;;;;;5042933;28;20048;-62
2023/04/25 06:56:11;;;;;;;4.40;1.02;;;;;;;;;;5024069;28;20515;-63
2023/04/25 06:58:37;;;;;;;3.55;0.75;;;;;;;;;;5042436;28;20132;-63
2023/04/25 07:01:03;;;;;;;6.72;1.10;;;;;;;;;;5039486;28;20549;-63
2023/04/25 07:03:30;;;;;;;2.75;1.02;;;;;;;;;;5042778;28;20049;-63
2023/04/25 07:05:56;;;;;;;1.30;0.75;;;;;;;;;;5044844;28;20129;-63
2023/04/25 07:08:22;;;;;;;4.88;1.08;;;;;;;;;;5044044;28;20128;-62
2023/04/25 07:10:48;;;;;;;3.75;0.82;;;;;;;;;;5025957;28;20483;-62
2023/04/25 07:13:14;;;;;;;4.22;0.98;;;;;;;;;;5026356;28;20534;-63
2023/04/25 07:15:40;;;;;;;1.73;1.02;;;;;;;;;;5025982;28;20049;-63
2023/04/25 07:18:06;;;;;;;2.42;0.80;;;;;;;;;;5043858;28;20264;-63
2023/04/25 07:20:32;;;;;;;7.03;1.13;;;;;;;;;;5044419;28;20635;-63
2023/04/25 07:22:58;;;;;;;2.20;0.85;;;;;;;;;;5037098;28;20049;-63
2023/04/25 07:25:24;;;;;;;5.78;1.33;;;;;;;;;;5043257;28;20392;-63
2023/04/25 07:27:50;;;;;;;4.20;1.15;;;;;;;;;;5026924;28;20483;-63
2023/04/25 07:30:16;;;;;;;1.63;0.90;;;;;;;;;;5043473;28;20041;-62
2023/04/25 07:32:42;;;;;;;2.55;0.95;;;;;;;;;;5035781;28;20505;-63
2023/04/25 07:35:09;;;;;;;3.78;0.77;;;;;;;;;;5022846;28;20501;-63
2023/04/25 07:37:35;;;;;;;1.42;0.60;;;;;;;;;;5024828;28;20102;-62
2023/04/25 07:40:03;;;;;;;1.38;0.70;;;;;;;;;;5026574;28;20053;-62
2023/04/25 07:42:29;;;;;;;2.20;0.75;;;;;;;;;;5026559;28;20083;-62
2023/04/25 07:44:55;;;;;;;3.03;1.02;;;;;;;;;;5023626;28;20064;-62
2023/04/25 07:47:21;;;;;;;1.38;0.55;;;;;;;;;;5024148;28;20049;-63
2023/04/25 07:49:48;;;;;;;1.88;0.60;;;;;;;;;;5024118;28;20388;-63
2023/04/25 07:52:14;;;;;;;1.60;0.40;;;;;;;;;;5042230;28;20055;-63
2023/04/25 07:54:40;;;;;;;1.15;0.75;;;;;;;;;;5041755;28;20487;-63
2023/04/25 07:57:06;;;;;;;5.50;1.10;;;;;;;;;;5025280;28;20049;-63
2023/04/25 07:59:32;;;;;;;3.15;0.60;;;;;;;;;;5041572;28;20052;-62
2023/04/25 08:01:58;;;;;;;1.90;0.75;;;;;;;;;;5039740;28;20037;-63
2023/04/25 08:04:25;;;;;;;1.58;0.52;;;;;;;;;;5021151;28;20049;-62
2023/04/25 08:06:52;;;;;;;2.88;0.60;;;;;;;;;;5042210;28;20044;-63
2023/04/25 08:09:18;;;;;;;1.27;0.50;;;;;;;;;;5042707;28;21803;-62
2023/04/25 08:11:45;;;;;;;1.90;0.30;;;;;;;;;;5025824;28;20401;-63
2023/04/25 08:14:11;;;;;;;0.75;0.52;;;;;;;;;;5043333;28;20068;-63
2023/04/25 08:16:37;;;;;;;0.70;0.45;;;;;;;;;;5047763;28;20144;-62
2023/04/25 08:19:03;;;;;;;1.58;0.52;;;;;;;;;;5042143;28;20047;-63
2023/04/25 08:21:29;;;;;;;1.55;0.50;;;;;;;;;;5025290;28;20044;-62
2023/04/25 08:23:56;;;;;;;1.55;0.40;;;;;;;;;;5030126;28;20064;-62
2023/04/25 08:26:22;;;;;;;1.20;0.40;;;;;;;;;;5029048;28;20049;-62
2023/04/25 08:28:48;;;;;;;1.83;0.52;;;;;;;;;;5047745;28;20131;-63
2023/04/25 08:31:14;;;;;;;1.10;0.50;;;;;;;;;;5029919;28;20128;-62
2023/04/25 08:33:40;;;;;;;2.30;0.43;;;;;;;;;;5028649;28;20052;-63
2023/04/25 08:36:06;;;;;;;0.93;0.50;;;;;;;;;;5029550;28;20130;-63
2023/04/25 08:38:32;;;;;;;0.75;0.50;;;;;;;;;;5047671;28;20048;-63
2023/04/25 08:41:03;;;;;;;0.77;0.45;;;;;;;;;;5047264;28;20045;-63
2023/04/25 08:43:32;;;;;;;0.65;0.50;;;;;;;;;;5044720;28;20037;-63
2023/04/25 08:46:00;;;;;;;0.98;0.40;;;;;;;;;;5034870;28;20053;-63
2023/04/25 08:48:28;;;;;;;3.45;0.68;;;;;;;;;;5052061;28;20690;-62
2023/04/25 08:50:55;;;;;;;1.35;0.40;;;;;;;;;;5056300;28;20044;-68
2023/04/25 08:53:31;;;;;;;1.65;0.73;;;;;;;;;;5054635;28;20551;-63
2023/04/25 08:55:58;;;;;;;2.00;0.93;;;;;;;;;;5036337;28;20392;-63
2023/04/25 08:58:24;;;;;;;2.67;0.70;;;;;;;;;;5037155;28;20062;-63
2023/04/25 09:00:51;;;;;;;1.38;0.40;;;;;;;;;;5050082;28;20048;-63
2023/04/25 09:03:20;;;;;;;1.38;0.80;;;;;;;;;;5028250;28;20059;-63
2023/04/25 09:05:46;;;;;;;5.43;1.30;;;;;;;;;;5032129;28;20045;-63
2023/04/25 09:08:12;;;;;;;4.13;0.70;;;;;;;;;;5026960;28;20056;-63
2023/04/25 09:10:38;;;;;;;1.33;0.70;;;;;;;;;;5052791;28;20509;-63
2023/04/25 09:13:04;;;;;;;2.70;0.60;;;;;;;;;;5035492;28;20136;-63
2023/04/25 09:15:31;;;;;;;5.15;1.23;;;;;;;;;;5030804;28;20071;-63
2023/04/25 09:17:57;;;;;;;6.93;1.95;;;;;;;;;;5037553;28;20045;-63
2023/04/25 09:20:24;;;;;;;6.93;1.92;;;;;;;;;;5047056;28;20091;-63
2023/04/25 09:23:01;;;;;;;6.85;1.52;;;;;;;;;;5052469;28;20132;-63
2023/04/25 09:25:27;;;;;;;5.20;1.02;;;;;;;;;;5032233;28;20052;-63
2023/04/25 09:27:55;;;;;;;3.70;1.10;;;;;;;;;;5036966;28;20129;-63
2023/04/25 09:30:30;;;;;;;6.65;1.50;;;;;;;;;;5052190;28;20115;-63
2023/04/25 09:33:06;;;;;;;4.47;1.00;;;;;;;;;;5048003;28;20055;-63
2023/04/25 09:35:36;;;;;;;6.53;1.73;;;;;;;;;;5032258;28;20111;-63
2023/04/25 09:38:02;;;;;;;4.97;1.38;;;;;;;;;;5033755;28;20056;-63
2023/04/25 09:40:30;;;;;;;4.85;1.15;;;;;;;;;;5046794;28;20049;-62
2023/04/25 09:42:57;;;;;;;5.22;1.00;;;;;;;;;;5047562;28;20555;-63
2023/04/25 09:45:23;;;;;;;5.30;1.33;;;;;;;;;;5032395;28;20495;-63
2023/04/25 09:47:50;;;;;;;4.50;1.10;;;;;;;;;;5057499;28;20403;-62
2023/04/25 09:50:18;;;;;;;2.47;0.95;;;;;;;;;;5050141;28;20048;-63
2023/04/25 09:52:44;;;;;;;4.53;1.50;;;;;;;;;;5052141;28;20067;-63
2023/04/25 09:55:10;;;;;;;4.55;1.23;;;;;;;;;;5033891;28;20478;-63
2023/04/25 09:57:39;;;;;;;4.38;1.10;;;;;;;;;;5036649;28;20419;-63
2023/04/25 10:00:09;;;;;;;3.90;1.20;;;;;;;;;;5053355;28;20040;-63
2023/04/25 10:02:36;;;;;;;6.13;1.88;;;;;;;;;;5036268;28;20049;-63
2023/04/25 10:05:03;;;;;;;4.45;1.63;;;;;;;;;;5049867;28;20900;-63
2023/04/25 10:07:30;;;;;;;6.25;1.40;;;;;;;;;;5053450;28;20044;-64
2023/04/25 10:10:01;;;;;;;5.35;1.42;;;;;;;;;;5054036;28;20051;-64
2023/04/25 10:12:27;;;;;;;7.00;1.85;;;;;;;;;;5048388;28;20041;-65
2023/04/25 10:14:57;;;;;;;3.03;0.90;;;;;;;;;;5043114;28;20123;-65
2023/04/25 10:17:23;;;;;;;3.08;0.85;;;;;;;;;;5045343;28;20041;-65
2023/04/25 10:19:50;;;;;;;2.95;1.15;;;;;;;;;;5044723;28;20053;-65
2023/04/25 10:22:26;;;;;;;5.55;1.40;;;;;;;;;;5044644;28;20044;-65
2023/04/25 10:24:52;;;;;;;2.53;1.15;;;;;;;;;;5027424;28;20063;-65
2023/04/25 10:27:19;;;;;;;5.32;1.25;;;;;;;;;;5044660;28;20575;-65
2023/04/25 10:29:45;;;;;;;4.05;1.38;;;;;;;;;;5024702;28;20065;-64
2023/04/25 10:32:11;;;;;;;5.78;1.35;;;;;;;;;;5043740;28;20051;-64
2023/04/25 10:34:41;;;;;;;6.35;1.63;;;;;;;;;;5025556;28;20114;-65
2023/04/25 10:37:11;;;;;;;6.47;1.10;;;;;;;;;;5041504;28;20059;-66
2023/04/25 10:39:38;;;;;;;4.32;1.27;;;;;;;;;;5031378;28;20372;-64
2023/04/25 10:42:05;;;;;;;3.38;0.95;;;;;;;;;;5040698;28;20045;-64
2023/04/25 10:44:31;;;;;;;3.28;1.15;;;;;;;;;;5038386;28;20051;-65
2023/04/25 10:46:57;;;;;;;3.05;1.02;;;;;;;;;;5036185;28;20048;-65
2023/04/25 10:49:34;;;;;;;4.30;1.83;;;;;;;;;;5043284;28;20080;-65
2023/04/25 10:52:12;;;;;;;5.45;1.27;;;;;;;;;;5031011;28;20055;-65
2023/04/25 10:54:47;;;;;;;5.05;1.25;;;;;;;;;;5038603;28;20141;-65
2023/04/25 10:57:33;;;;;;;5.97;1.65;;;;;;;;;;5016328;28;20048;-64
2023/04/25 11:00:10;;;;;;;3.55;1.02;;;;;;;;;;5024853;28;20043;-65
2023/04/25 11:02:44;;;;;;;3.97;1.30;;;;;;;;;;5042574;28;20041;-64
2023/04/25 11:05:10;;;;;;;3.78;0.85;;;;;;;;;;5040629;28;20049;-64
2023/04/25 11:07:45;;;;;;;3.85;1.10;;;;;;;;;;5027714;28;20048;-64
2023/04/25 11:10:11;;;;;;;3.15;1.30;;;;;;;;;;5032378;28;20053;-65
2023/04/25 11:12:37;;;;;;;1.58;1.13;;;;;;;;;;5051710;28;20033;-64
2023/04/25 11:15:04;;;;;;;3.20;0.90;;;;;;;;;;5034591;28;20052;-65
2023/04/25 11:17:30;;;;;;;2.42;0.95;;;;;;;;;;5054593;28;20375;-65
2023/04/25 11:19:56;;;;;;;4.63;1.23;;;;;;;;;;5037610;28;20053;-65
2023/04/25 11:22:22;;;;;;;4.80;1.15;;;;;;;;;;5031854;28;20053;-63
2023/04/25 11:24:49;;;;;;;3.00;1.02;;;;;;;;;;5052120;28;20056;-67
2023/04/25 11:27:15;;;;;;;3.58;1.33;;;;;;;;;;5024982;28;20155;-64
2023/04/25 11:29:41;;;;;;;4.15;1.15;;;;;;;;;;5039103;28;20048;-64
2023/04/25 11:32:07;;;;;;;2.95;0.93;;;;;;;;;;5042125;28;20049;-64
2023/04/25 11:34:34;;;;;;;3.75;1.20;;;;;;;;;;5035359;28;20045;-64
2023/04/25 11:37:01;;;;;;;2.42;1.35;;;;;;;;;;5038251;28;20052;-64
2023/04/25 11:39:27;;;;;;;4.55;1.20;;;;;;;;;;5022357;28;20777;-64
2023/04/25 11:41:54;;;;;;;5.70;1.15;;;;;;;;;;5043971;28;20099;-64
2023/04/25 11:44:20;;;;;;;6.28;1.00;;;;;;;;;;5021175;28;20189;-63
2023/04/25 11:46:47;;;;;;;6.80;1.40;;;;;;;;;;5022916;28;20052;-64
2023/04/25 11:49:13;;;;;;;2.75;0.90;;;;;;;;;;5039264;28;20057;-64
2023/04/25 11:51:43;;;;;;;2.60;0.57;;;;;;;;;;5036943;28;20100;-64
2023/04/25 11:54:09;;;;;;;3.70;1.33;;;;;;;;;;5015826;28;20491;-64
2023/04/25 11:56:35;;;;;;;4.40;1.25;;;;;;;;;;5025838;28;20044;-64
2023/04/25 11:59:05;;;;;;;2.60;1.02;;;;;;;;;;5041367;28;20098;-64
2023/04/25 12:01:36;;;;;;;2.80;0.90;;;;;;;;;;5043079;28;20487;-64
2023/04/25 12:04:13;;;;;;;2.30;0.70;;;;;;;;;;5023206;28;20600;-64
2023/04/25 12:06:40;;;;;;;1.70;0.80;;;;;;;;;;5037227;28;20044;-65
2023/04/25 12:09:07;;;;;;;1.63;0.65;;;;;;;;;;5023133;28;20119;-65
2023/04/25 12:11:40;;;;;;;2.10;1.05;;;;;;;;;;5022288;28;20395;-64
2023/04/25 12:14:06;;;;;;;2.15;0.90;;;;;;;;;;5024735;28;20045;-64
2023/04/25 12:16:42;;;;;;;3.13;0.88;;;;;;;;;;5030797;28;20140;-65
2023/04/25 12:19:09;;;;;;;3.05;1.10;;;;;;;;;;5027274;28;20131;-65
2023/04/25 12:21:35;;;;;;;4.13;0.90;;;;;;;;;;5028494;28;20067;-65
2023/04/25 12:24:12;;;;;;;3.55;0.68;;;;;;;;;;5024390;28;20395;-65
2023/04/25 12:26:51;;;;;;;2.13;1.15;;;;;;;;;;5049519;28;20446;-65
2023/04/25 12:29:22;;;;;;;4.93;1.17;;;;;;;;;;5029778;28;20052;-64
2023/04/25 12:31:49;;;;;;;4.63;1.25;;;;;;;;;;5037487;28;20052;-64
2023/04/25 12:34:15;;;;;;;2.25;1.10;;;;;;;;;;5046152;28;20098;-65
2023/04/25 12:36:41;;;;;;;5.78;0.82;;;;;;;;;;5047083;28;20055;-64
2023/04/25 12:39:07;;;;;;;2.10;0.95;;;;;;;;;;5046274;28;20060;-64
2023/04/25 12:41:34;;;;;;;1.52;0.55;;;;;;;;;;5047553;28;20053;-64
2023/04/25 12:44:00;;;;;;;3.55;1.30;;;;;;;;;;5065175;28;20056;-64
2023/04/25 12:46:26;;;;;;;2.63;1.20;;;;;;;;;;5035493;28;20531;-65
2023/04/25 12:48:52;;;;;;;4.68;1.20;;;;;;;;;;5046568;28;20053;-65
2023/04/25 12:51:18;;;;;;;3.55;0.77;;;;;;;;;;5047557;28;20036;-65
2023/04/25 12:53:44;;;;;;;2.53;0.95;;;;;;;;;;5028135;28;20565;-65
2023/04/25 12:56:11;;;;;;;2.45;1.13;;;;;;;;;;5027762;28;20052;-65
2023/04/25 12:58:37;;;;;;;2.05;0.90;;;;;;;;;;5041274;28;20131;-66
2023/04/25 13:01:03;;;;;;;3.13;0.77;;;;;;;;;;5019065;28;20038;-65
2023/04/25 13:03:29;;;;;;;2.90;1.10;;;;;;;;;;5020381;28;20073;-65
2023/04/25 13:05:55;;;;;;;3.35;1.17;;;;;;;;;;5037914;28;20094;-65
2023/04/25 13:08:21;;;;;;;3.38;1.10;;;;;;;;;;5029450;28;20487;-65
2023/04/25 13:10:48;;;;;;;2.75;1.00;;;;;;;;;;5027560;28;20077;-65
2023/04/25 13:13:14;;;;;;;2.58;0.90;;;;;;;;;;5039982;28;20094;-66
2023/04/25 13:15:40;;;;;;;2.60;0.93;;;;;;;;;;5033401;28;20160;-65
2023/04/25 13:18:06;;;;;;;3.28;1.30;;;;;;;;;;5026669;28;20053;-65
2023/04/25 13:20:33;;;;;;;7.05;1.40;;;;;;;;;;5009470;28;20065;-65
2023/04/25 13:22:58;;;;;;;4.47;1.20;;;;;;;;;;5025010;28;20037;-65
2023/04/25 13:25:25;;;;;;;2.58;1.20;;;;;;;;;;5008340;28;20112;-65
2023/04/25 13:27:51;;;;;;;1.88;0.93;;;;;;;;;;5007660;28;20389;-65
2023/04/25 13:30:16;;;;;;;4.00;1.25;;;;;;;;;;5007109;28;20131;-65
2023/04/25 13:32:43;;;;;;;1.90;0.57;;;;;;;;;;5025511;28;20045;-65
2023/04/25 13:35:10;;;;;;;1.30;0.70;;;;;;;;;;5007475;28;20084;-65
2023/04/25 13:37:36;;;;;;;2.80;0.88;;;;;;;;;;5026625;28;20046;-65
2023/04/25 13:40:04;;;;;;;1.88;0.70;;;;;;;;;;5020402;28;20053;-64
2023/04/25 13:42:31;;;;;;;2.50;0.70;;;;;;;;;;5028133;28;20511;-65
2023/04/25 13:44:57;;;;;;;2.72;0.85;;;;;;;;;;5046116;28;20597;-65
2023/04/25 13:47:23;;;;;;;2.08;0.85;;;;;;;;;;5047166;28;20049;-66
2023/04/25 13:49:50;;;;;;;2.78;0.70;;;;;;;;;;5044407;28;20044;-65
2023/04/25 13:52:16;;;;;;;2.45;1.10;;;;;;;;;;5037630;28;20710;-65
2023/04/25 13:54:42;;;;;;;3.25;1.10;;;;;;;;;;5045075;28;20483;-64
2023/04/25 13:57:08;;;;;;;2.90;0.75;;;;;;;;;;5045695;28;20049;-65
2023/04/25 13:59:34;;;;;;;7.45;1.30;;;;;;;;;;5027963;28;20073;-64
2023/04/25 14:02:00;;;;;;;4.03;1.17;;;;;;;;;;5027131;28;20087;-65
2023/04/25 14:04:27;;;;;;;2.35;1.10;;;;;;;;;;5045135;28;20041;-64
2023/04/25 14:06:53;;;;;;;4.07;1.10;;;;;;;;;;5028066;28;20040;-64
2023/04/25 14:09:22;;;;;;;5.25;1.27;;;;;;;;;;5028365;28;20052;-64
2023/04/25 14:11:48;;;;;;;4.63;1.10;;;;;;;;;;5027937;28;20395;-65
2023/04/25 14:14:15;;;;;;;3.90;1.05;;;;;;;;;;5028193;28;20053;-65
2023/04/25 14:16:42;;;;;;;1.42;0.70;;;;;;;;;;5028446;28;20045;-64
2023/04/25 14:19:08;;;;;;;2.50;0.80;;;;;;;;;;5027602;28;20053;-64
2023/04/25 14:21:36;;;;;;;1.58;0.70;;;;;;;;;;5046102;28;20522;-65
2023/04/25 14:24:02;;;;;;;2.20;0.75;;;;;;;;;;5045789;28;20459;-64
2023/04/25 14:26:28;;;;;;;4.78;1.25;;;;;;;;;;5027381;28;20044;-65
2023/04/25 14:28:54;;;;;;;3.00;1.17;;;;;;;;;;5045772;28;20502;-64
2023/04/25 14:31:20;;;;;;;1.67;0.80;;;;;;;;;;5045937;28;20049;-64
2023/04/25 14:33:46;;;;;;;4.00;1.25;;;;;;;;;;5045350;28;20041;-64
2023/04/25 14:36:14;;;;;;;3.60;0.98;;;;;;;;;;5027874;28;20053;-64
2023/04/25 14:38:40;;;;;;;4.50;1.90;;;;;;;;;;5027409;28;20511;-65
2023/04/25 14:41:06;;;;;;;2.63;1.13;;;;;;;;;;5046021;28;20110;-65